34CO weather

Simons Airport
Aurora, Colorado, United States

Public forecast

Using degrees Fahrenheit for public forecast. Weather courtesy of forecast.io.

METAR (pilot weather report)

Closest report is Buckley Air Force Base, 1.3 nm (2.4 km) SW. Retrieved 2019/04/22 22:58 UTC (37 minutes ago):

KBKF 222258Z 00000KT 10SM BKN014 OVC055 06/04 A3025 RMK AO2A SLP234 T00630038

TAF (pilot weather forecast)

Forecast is more than 6 hours old.

Closest forecast is Buckley Air Force Base, 1.3 nm (2.4 km) SW. Retrieved 2019/04/22 17:09 UTC (6 hours ago):

TAF TAF KBKF 221707Z 2217/2323 03009KT 8000 BR OVC004 QNH3021INS TEMPO 2219/2222 VCSH BKN010 BECMG 2221/2222 05009KT 9999 NSW FEW010 BKN025 QNH3022INS BECMG 2303/2304 16006KT 9999 SCT010 BKN030 QNH3015INS BECMG 2314/2315 30009KT 9999 FEW010 QNH3005INS TX08/2221Z TN03/2309Z